Aérodrome :
LOGIN :

S'inscrire | Disclaimer

   EN    FR    IT 

 










Légende :    VFR   VFR Marginal   IFR   IFR Intensif   IFR Très Intensif
Visi : 
Plafond : 
>= 8 km
>= 3000ft
5 à 8 km
1000 à 3000 ft
1500m à 5 km
500 à 1000 ft
800 à 1500m
200 à 500 ft
< 800m
< 200 ft
Symboles :   Orages  Brouillard  Fortes neiges  Fortes précipitations  Vent > 20 kt
SIGMETs :   Divers  Orages  Givrage  Turbulence  Onde Orograph.  Cendres Volcan.






- Altitude de l'aérodrome : 83 ft
- Code IATA : LHR


EGLL - London Heathrow

DERNIER METAR :
  • 010520Z AUTO 35003KT 9999 NCD M00/M02 Q1026 NOSIG

METARs EXPIRÉS :
  • 010450Z AUTO VRB02KT 9999 NCD M00/M03 Q1026 NOSIG
  • 010420Z AUTO 36003KT 9999 NCD M00/M03 Q1026 NOSIG
  • 010350Z AUTO 01004KT 9999 NCD M00/M03 Q1027 NOSIG
  • 010320Z AUTO 36003KT 9999 NCD M00/M03 Q1027
  • 010250Z AUTO 35004KT 9999 NCD 01/M02 Q1027 NOSIG

TAF TAF EGLL
Valide du 01 à 06h jusqu'au 02 à 12h UTC


010503Z 0106/0212 36005KT 9999 FEW045
BECMG 0209/0212 26012KT



MET'MAP, la Météo Aéronautique d'un coup d'oeil ! - Copyright ORBIFLY Décembre 2007 - Disclaimer

ORBIFLY MET'MAP TEAM :

Programmation & Développement : Alexandra Zaïnal
Sur une idée originale de : Baudouin d'Aumeries
Assistance à la programmation : Marc-Olivier Méhu
Soutien technique & logistique : Manuel Goepfert

Contact : metmap@orbifly.com




SOURCES & CREDITS :

   NOAA